Terminal Aerodrome Forecast
Issued by NWS

Home | Current Version | Previous Version | Text Only | Print | Product List | Glossary On
Versions: 1 2 3 4 5 6 7 8 9 10 11 12 13 14 15 16 17 18 19 20 21 22 23 24 25 26 27 28 29 30 31
000
FTUS41 KBOX 011133
TAFACK
TAF
KACK 011133Z 0112/0212 VRB03KT P6SM SCT120
     FM011800 21008KT P6SM OVC060
     FM012200 18008KT 2SM -SN OVC020
     FM020000 18007KT 1/2SM SN OVC010
     FM020200 19006KT 1SM -SNRA OVC015
     FM020600 21005KT 3SM -RA OVC010=

USA.gov is the U.S. government's official web portal to all federal, state and local government web resources and services.